createdAt,value
2023-01-10T00:02:59.403Z,0.77
2023-01-10T00:07:54.255Z,0.70
2023-01-10T00:13:05.123Z,0.70
2023-01-10T00:17:58.486Z,0.50
2023-01-10T00:22:53.396Z,0.50
2023-01-10T00:27:49.805Z,0.60
2023-01-10T00:52:51.737Z,1.00
2023-01-10T00:57:45.094Z,0.90
2023-01-10T01:02:38.541Z,1.53
2023-01-10T02:30:54.741Z,1.00
2023-01-10T02:36:24.285Z,0.87
2023-01-10T02:41:30.286Z,0.90
2023-01-10T03:52:14.614Z,1.20
2023-01-10T03:57:49.038Z,1.43
2023-01-10T04:02:42.668Z,1.00
2023-01-10T05:06:41.294Z,1.20
2023-01-10T05:11:34.890Z,1.17
2023-01-10T05:36:19.770Z,1.60
2023-01-10T11:33:32.305Z,1.00
2023-01-10T11:38:30.036Z,1.20
2023-01-10T11:43:31.564Z,1.27
2023-01-10T11:48:59.473Z,1.30
2023-01-10T11:53:45.193Z,1.10
2023-01-10T11:58:40.052Z,1.30
2023-01-10T12:03:40.256Z,1.00
2023-01-10T12:08:36.840Z,0.87
2023-01-10T12:13:43.818Z,1.40
2023-01-10T12:18:38.576Z,1.30
2023-01-10T12:23:35.827Z,1.33
2023-01-10T12:28:32.280Z,1.27
2023-01-10T12:33:34.178Z,1.03
2023-01-10T12:38:55.669Z,1.17
2023-01-10T12:44:06.485Z,1.10
2023-01-10T12:49:08.820Z,1.27
2023-01-10T12:54:13.945Z,1.20
2023-01-10T12:59:36.071Z,1.30
2023-01-10T13:11:04.617Z,0.90
2023-01-10T13:16:18.161Z,0.90
2023-01-10T13:21:14.144Z,0.90
2023-01-10T13:26:11.169Z,1.10
2023-01-10T13:31:09.575Z,0.93
2023-01-10T13:36:13.609Z,1.50
2023-01-10T13:41:31.076Z,1.30
2023-01-10T13:46:50.152Z,1.10
2023-01-10T13:52:31.584Z,1.10
2023-01-10T13:57:55.094Z,1.23
2023-01-10T14:02:47.559Z,1.03
2023-01-10T14:07:48.567Z,1.23
2023-01-10T14:12:55.556Z,0.93
2023-01-10T14:18:00.046Z,1.07
2023-01-10T14:23:17.691Z,1.10
2023-01-10T14:28:26.291Z,0.90
2023-01-10T14:33:23.435Z,0.87
2023-01-10T14:45:49.828Z,0.70
2023-01-10T15:10:27.312Z,0.80
2023-01-10T15:34:59.181Z,3.33
2023-01-10T18:28:06.966Z,4.20
2023-01-10T18:33:01.789Z,10.17
2023-01-10T18:37:56.010Z,4.40
